createdAt,value
2023-01-15T00:00:53.589Z,10.60
2023-01-15T00:03:21.851Z,10.60
2023-01-15T00:05:48.759Z,10.60
2023-01-15T00:08:15.643Z,10.60
2023-01-15T00:10:42.485Z,10.70
2023-01-15T00:13:09.474Z,10.70
2023-01-15T00:15:36.416Z,10.70
2023-01-15T00:18:03.907Z,10.70
2023-01-15T00:20:32.194Z,10.70
2023-01-15T00:22:59.139Z,10.70
2023-01-15T00:25:44.401Z,10.70
2023-01-15T00:28:14.353Z,10.70
2023-01-15T00:30:42.158Z,10.60
2023-01-15T00:33:09.172Z,10.70
2023-01-15T00:35:37.438Z,10.70
2023-01-15T00:38:04.324Z,10.70
2023-01-15T00:40:31.154Z,10.70
2023-01-15T00:42:58.061Z,10.70
2023-01-15T00:45:24.895Z,10.70
2023-01-15T00:47:52.065Z,10.70
2023-01-15T00:50:19.151Z,10.70
2023-01-15T00:52:47.361Z,10.70
2023-01-15T00:55:14.237Z,10.70
2023-01-15T00:57:41.164Z,10.70
2023-01-15T01:00:09.317Z,10.70
2023-01-15T01:02:36.223Z,10.60
2023-01-15T01:05:03.365Z,10.60
2023-01-15T01:07:30.305Z,10.60
2023-01-15T01:09:58.537Z,10.60
2023-01-15T01:12:26.273Z,10.60
2023-01-15T01:14:53.256Z,10.70
2023-01-15T01:17:20.118Z,10.70
2023-01-15T01:19:47.079Z,10.70
2023-01-15T01:22:13.889Z,10.70
2023-01-15T01:24:40.760Z,10.70
2023-01-15T01:27:08.946Z,10.70
2023-01-15T01:29:35.865Z,10.70
2023-01-15T01:32:02.819Z,10.60
2023-01-15T01:34:29.778Z,10.60
2023-01-15T01:36:56.681Z,10.60
2023-01-15T01:39:23.586Z,10.60
2023-01-15T01:41:50.521Z,10.60
2023-01-15T01:45:09.384Z,10.60
2023-01-15T01:47:38.976Z,10.50
2023-01-15T01:50:11.600Z,10.50
2023-01-15T01:52:43.294Z,10.60
2023-01-15T01:55:12.004Z,10.60
2023-01-15T01:57:40.698Z,10.60
2023-01-15T02:00:11.102Z,10.60
2023-01-15T02:02:40.525Z,10.70
2023-01-15T02:05:09.652Z,10.70
2023-01-15T02:07:36.662Z,10.70
2023-01-15T02:10:04.032Z,10.70
2023-01-15T02:12:36.771Z,10.60
2023-01-15T02:15:12.500Z,10.60
2023-01-15T02:17:47.084Z,10.60
2023-01-15T02:20:23.965Z,10.60
2023-01-15T02:23:06.169Z,10.60
2023-01-15T02:25:41.986Z,10.50
2023-01-15T02:28:17.092Z,10.50
2023-01-15T02:30:47.186Z,10.40
2023-01-15T02:33:18.298Z,10.40
2023-01-15T02:35:48.994Z,10.40
2023-01-15T02:38:22.621Z,10.30
2023-01-15T02:40:53.979Z,10.30
2023-01-15T02:43:24.737Z,10.20
2023-01-15T02:45:54.262Z,10.10
2023-01-15T02:48:26.673Z,10.10
2023-01-15T02:50:58.800Z,10.10
2023-01-15T02:53:29.835Z,10.00
2023-01-15T02:56:03.155Z,10.00
2023-01-15T02:58:34.728Z,10.00
2023-01-15T03:01:06.285Z,9.90
2023-01-15T03:03:39.800Z,9.90
2023-01-15T03:06:11.322Z,9.80
2023-01-15T03:08:38.481Z,9.70
2023-01-15T03:11:08.148Z,9.60
2023-01-15T03:13:46.162Z,9.50
2023-01-15T03:16:37.207Z,9.50
2023-01-15T03:19:22.583Z,9.40
2023-01-15T03:21:55.213Z,9.30
2023-01-15T03:24:27.578Z,9.20
2023-01-15T03:26:54.645Z,9.20
2023-01-15T03:29:25.295Z,9.10
2023-01-15T03:31:52.481Z,9.10
2023-01-15T03:34:19.539Z,9.10
2023-01-15T03:36:46.586Z,9.00
2023-01-15T03:39:13.600Z,9.00
2023-01-15T03:41:49.925Z,8.90
2023-01-15T03:44:32.991Z,8.90
2023-01-15T03:47:09.840Z,8.90
2023-01-15T03:49:50.677Z,8.80
2023-01-15T03:52:26.127Z,8.70
2023-01-15T03:55:02.755Z,8.60
2023-01-15T03:57:36.269Z,8.60
2023-01-15T04:00:11.645Z,8.50
2023-01-15T04:02:40.003Z,8.50
2023-01-15T04:05:07.495Z,8.40
2023-01-15T04:07:34.481Z,8.40
2023-01-15T04:10:01.822Z,8.30
2023-01-15T04:12:28.902Z,8.30
2023-01-15T04:14:55.756Z,8.30
2023-01-15T04:17:23.944Z,8.20
2023-01-15T04:19:51.344Z,8.20
2023-01-15T04:22:18.152Z,8.10
2023-01-15T04:24:45.039Z,8.10
2023-01-15T04:27:11.879Z,8.10
2023-01-15T04:29:38.854Z,8.00
2023-01-15T04:32:05.893Z,8.00
2023-01-15T04:34:35.856Z,7.90
2023-01-15T04:37:02.770Z,7.90
2023-01-15T04:39:29.778Z,7.90
2023-01-15T04:42:15.407Z,7.90
2023-01-15T04:44:42.384Z,7.90
2023-01-15T04:47:09.396Z,7.80
2023-01-15T04:49:37.616Z,7.80
2023-01-15T04:52:04.860Z,7.80
2023-01-15T04:54:31.971Z,7.80
2023-01-15T04:56:58.941Z,7.80
2023-01-15T04:59:27.584Z,7.80
2023-01-15T05:02:03.776Z,7.80
2023-01-15T05:04:33.311Z,7.90
2023-01-15T05:07:02.880Z,7.90
2023-01-15T05:09:30.156Z,7.90
2023-01-15T05:11:57.016Z,7.90
2023-01-15T05:14:23.915Z,7.80
2023-01-15T05:16:50.769Z,7.80
2023-01-15T05:19:17.675Z,7.80
2023-01-15T05:21:45.231Z,7.80
2023-01-15T05:24:15.723Z,7.80
2023-01-15T05:26:43.391Z,7.80
2023-01-15T05:29:11.804Z,7.80
2023-01-15T05:31:39.594Z,7.80
2023-01-15T05:34:06.520Z,7.80
2023-01-15T05:36:33.580Z,7.70
2023-01-15T05:39:02.311Z,7.70
2023-01-15T05:41:48.905Z,7.70
2023-01-15T05:44:18.939Z,7.60
2023-01-15T05:46:46.929Z,7.60
2023-01-15T05:49:15.625Z,7.60
2023-01-15T05:51:43.214Z,7.60
2023-01-15T05:54:13.406Z,7.50
2023-01-15T05:56:41.977Z,7.50
2023-01-15T05:59:09.420Z,7.40
2023-01-15T06:01:36.358Z,7.40
2023-01-15T06:04:05.719Z,7.40
2023-01-15T06:06:33.789Z,7.40
2023-01-15T06:09:00.889Z,7.40
2023-01-15T06:11:27.989Z,7.40
2023-01-15T06:13:56.329Z,7.40
2023-01-15T06:16:23.307Z,7.40
2023-01-15T06:18:50.520Z,7.40
2023-01-15T06:21:17.920Z,7.40
2023-01-15T06:23:45.045Z,7.30
2023-01-15T06:26:14.156Z,7.30
2023-01-15T06:28:41.970Z,7.30
2023-01-15T06:31:11.994Z,7.30
2023-01-15T06:33:39.066Z,7.30
2023-01-15T06:36:08.002Z,7.30
2023-01-15T06:38:35.201Z,7.30
2023-01-15T06:41:03.479Z,7.20
2023-01-15T06:43:48.807Z,7.20
2023-01-15T06:46:35.834Z,7.20
2023-01-15T06:49:02.863Z,7.10
2023-01-15T06:51:31.269Z,7.00
2023-01-15T06:53:58.264Z,6.90
2023-01-15T06:56:25.240Z,6.80
2023-01-15T06:58:52.254Z,6.80
2023-01-15T07:01:20.613Z,6.60
2023-01-15T07:03:47.513Z,6.60
2023-01-15T07:06:14.318Z,6.60
2023-01-15T07:08:41.423Z,6.60
2023-01-15T07:11:09.711Z,6.60
2023-01-15T07:13:37.252Z,6.60
2023-01-15T07:16:05.024Z,6.70
2023-01-15T07:18:34.204Z,6.70
2023-01-15T07:21:01.200Z,6.70
2023-01-15T07:23:28.334Z,6.70
2023-01-15T07:25:55.569Z,6.70
2023-01-15T07:28:24.339Z,6.70
2023-01-15T07:30:51.205Z,6.60
2023-01-15T07:33:18.124Z,6.60
2023-01-15T07:35:46.297Z,6.60
2023-01-15T07:38:13.159Z,6.60
2023-01-15T07:40:40.077Z,6.60
2023-01-15T07:43:25.814Z,6.60
2023-01-15T07:46:11.286Z,6.60
2023-01-15T07:48:56.892Z,6.60
2023-01-15T07:51:25.122Z,6.60
2023-01-15T07:53:51.999Z,6.60
2023-01-15T07:56:18.893Z,6.50
2023-01-15T07:58:50.068Z,6.50
2023-01-15T08:01:17.026Z,6.40
2023-01-15T08:03:44.038Z,6.40
2023-01-15T08:06:10.974Z,6.30
2023-01-15T08:08:39.344Z,6.30
2023-01-15T08:11:24.983Z,6.30
2023-01-15T08:14:10.638Z,6.30
2023-01-15T08:16:37.623Z,6.30
2023-01-15T08:19:04.566Z,6.30
2023-01-15T08:21:31.457Z,6.20
2023-01-15T08:23:59.712Z,6.30
2023-01-15T08:26:26.917Z,6.30
2023-01-15T08:28:53.802Z,6.40
2023-01-15T08:31:20.798Z,6.40
2023-01-15T08:33:47.742Z,6.40
2023-01-15T08:36:15.945Z,6.40
2023-01-15T08:38:42.875Z,6.40
2023-01-15T08:41:11.315Z,6.40
2023-01-15T08:43:38.149Z,6.40
2023-01-15T08:46:06.076Z,6.50
2023-01-15T08:48:33.689Z,6.50
2023-01-15T08:51:04.397Z,6.50
2023-01-15T08:53:31.372Z,6.40
2023-01-15T08:55:58.566Z,6.40
2023-01-15T08:58:27.976Z,6.40
2023-01-15T09:00:55.131Z,6.50
2023-01-15T09:03:22.051Z,6.30
2023-01-15T09:05:49.003Z,6.40
2023-01-15T09:08:15.914Z,6.40
2023-01-15T09:10:42.794Z,6.40
2023-01-15T09:13:10.037Z,6.50
2023-01-15T09:15:38.307Z,6.50
2023-01-15T09:18:05.393Z,6.50
2023-01-15T09:20:34.052Z,6.50
2023-01-15T09:23:01.113Z,6.50
2023-01-15T09:25:27.978Z,6.50
2023-01-15T09:27:56.170Z,6.50
2023-01-15T09:30:23.481Z,6.50
2023-01-15T09:32:51.718Z,6.50
2023-01-15T09:35:18.597Z,6.60
2023-01-15T09:37:50.962Z,6.50
2023-01-15T09:40:34.498Z,6.50
2023-01-15T09:43:06.611Z,6.50
2023-01-15T09:45:39.939Z,6.50
2023-01-15T09:48:25.940Z,6.50
2023-01-15T09:51:03.249Z,6.50
2023-01-15T09:53:59.232Z,6.50
2023-01-15T09:56:28.682Z,6.50
2023-01-15T09:58:58.071Z,6.40
2023-01-15T10:01:29.849Z,6.40
2023-01-15T10:04:04.330Z,6.40
2023-01-15T10:06:36.729Z,6.40
2023-01-15T10:09:11.601Z,6.40
2023-01-15T10:12:01.598Z,6.40
2023-01-15T10:14:39.796Z,6.40
2023-01-15T10:17:17.755Z,6.40
2023-01-15T10:19:46.049Z,6.40
2023-01-15T10:22:24.195Z,6.40
2023-01-15T10:24:57.468Z,6.40
2023-01-15T10:27:26.779Z,6.40
2023-01-15T10:29:59.875Z,6.40
2023-01-15T10:32:36.167Z,6.40
2023-01-15T10:35:21.705Z,6.40
2023-01-15T10:37:54.447Z,6.40
2023-01-15T10:40:38.911Z,6.40
2023-01-15T10:43:14.245Z,6.50
2023-01-15T10:45:44.678Z,6.50
2023-01-15T10:48:18.340Z,6.50
2023-01-15T10:50:47.709Z,6.60
2023-01-15T10:53:24.289Z,6.60
2023-01-15T10:55:55.103Z,6.60
2023-01-15T10:58:30.025Z,6.60
2023-01-15T11:01:03.278Z,6.60
2023-01-15T11:03:36.173Z,6.60
2023-01-15T11:06:05.477Z,6.60
2023-01-15T11:09:08.646Z,6.60
2023-01-15T11:11:44.160Z,6.60
2023-01-15T11:14:29.902Z,6.60
2023-01-15T11:17:08.584Z,6.60
2023-01-15T11:19:39.721Z,6.60
2023-01-15T11:22:11.003Z,6.60
2023-01-15T11:24:44.916Z,6.70
2023-01-15T11:27:15.793Z,6.70
2023-01-15T11:29:45.025Z,6.70
2023-01-15T11:32:23.628Z,6.80
2023-01-15T11:34:54.298Z,6.80
2023-01-15T11:37:22.816Z,6.80
2023-01-15T11:39:54.304Z,6.90
2023-01-15T11:42:39.764Z,6.90
2023-01-15T11:45:33.699Z,7.00
2023-01-15T11:48:19.587Z,7.00
2023-01-15T11:50:55.720Z,7.00
2023-01-15T11:53:27.544Z,7.00
2023-01-15T11:56:00.703Z,7.00
2023-01-15T11:58:29.157Z,7.00
2023-01-15T12:00:58.323Z,7.10
2023-01-15T12:03:28.617Z,7.10
2023-01-15T12:05:59.009Z,7.20
2023-01-15T12:08:42.744Z,7.30
2023-01-15T12:11:27.511Z,7.50
2023-01-15T12:14:09.595Z,7.60
2023-01-15T12:16:43.917Z,7.60
2023-01-15T12:19:18.543Z,7.70
2023-01-15T12:22:13.216Z,7.80
2023-01-15T12:25:02.212Z,8.00
2023-01-15T12:27:43.739Z,8.10
2023-01-15T12:30:21.623Z,8.10
2023-01-15T12:32:55.306Z,8.10
2023-01-15T12:35:33.295Z,8.10
2023-01-15T12:38:11.825Z,8.20
2023-01-15T12:40:47.238Z,8.20
2023-01-15T12:43:38.098Z,8.10
2023-01-15T12:46:06.977Z,8.10
2023-01-15T12:48:39.848Z,8.20
2023-01-15T12:51:07.211Z,8.20
2023-01-15T12:53:41.243Z,8.20
2023-01-15T12:56:19.547Z,8.30
2023-01-15T12:58:50.620Z,8.40
2023-01-15T13:01:22.209Z,8.70
2023-01-15T13:03:58.330Z,8.80
2023-01-15T13:06:28.632Z,8.90
2023-01-15T13:09:00.598Z,9.00
2023-01-15T13:11:28.900Z,9.00
2023-01-15T13:13:58.424Z,9.00
2023-01-15T13:16:37.656Z,9.10
2023-01-15T13:19:20.721Z,9.10
2023-01-15T13:21:52.767Z,9.10
2023-01-15T13:24:48.268Z,9.10
2023-01-15T13:27:28.846Z,9.00
2023-01-15T13:30:15.523Z,8.90
2023-01-15T13:32:46.035Z,8.80
2023-01-15T13:35:20.132Z,8.80
2023-01-15T13:37:51.518Z,8.60
2023-01-15T13:40:25.549Z,8.60
2023-01-15T13:42:54.764Z,8.50
2023-01-15T13:45:28.054Z,8.50
2023-01-15T13:47:58.255Z,8.50
2023-01-15T13:50:29.838Z,8.60
2023-01-15T13:53:03.959Z,8.70
2023-01-15T13:55:34.371Z,8.70
2023-01-15T13:58:02.690Z,8.80
2023-01-15T14:00:32.297Z,8.80
2023-01-15T14:03:01.244Z,8.70
2023-01-15T14:05:31.901Z,8.60
2023-01-15T14:08:01.493Z,8.60
2023-01-15T14:10:38.627Z,8.60
2023-01-15T14:13:37.283Z,8.60
2023-01-15T14:16:12.618Z,8.50
2023-01-15T14:19:11.239Z,8.50
2023-01-15T14:21:44.344Z,8.50
2023-01-15T14:24:34.064Z,8.50
2023-01-15T14:27:07.236Z,8.50
2023-01-15T14:30:04.096Z,8.40
2023-01-15T14:32:48.509Z,8.40
2023-01-15T14:35:21.501Z,8.40
2023-01-15T14:37:52.652Z,8.40
2023-01-15T14:40:22.728Z,8.30
2023-01-15T14:43:02.371Z,8.30
2023-01-15T14:45:32.313Z,8.40
2023-01-15T14:48:02.882Z,8.30
2023-01-15T14:50:39.339Z,8.40
2023-01-15T14:53:22.385Z,8.30
2023-01-15T14:55:51.806Z,8.30
2023-01-15T14:58:34.461Z,8.30
2023-01-15T15:01:07.448Z,8.30
2023-01-15T15:03:38.858Z,8.30
2023-01-15T15:06:07.670Z,8.30
2023-01-15T15:08:35.947Z,8.30
2023-01-15T15:11:24.915Z,8.30
2023-01-15T15:13:56.499Z,8.30
2023-01-15T15:16:28.084Z,8.20
2023-01-15T15:19:01.700Z,8.20
2023-01-15T15:21:32.030Z,8.20
2023-01-15T15:24:05.310Z,8.20
2023-01-15T15:26:33.931Z,8.20
2023-01-15T15:29:02.707Z,8.20
2023-01-15T15:31:34.465Z,8.20
2023-01-15T15:34:05.958Z,8.20
2023-01-15T15:36:38.321Z,8.10
2023-01-15T15:39:18.902Z,8.10
2023-01-15T15:42:07.763Z,8.10
2023-01-15T15:44:58.562Z,8.00
2023-01-15T15:47:45.253Z,8.00
2023-01-15T15:50:24.243Z,8.00
2023-01-15T15:52:52.250Z,8.00
2023-01-15T15:55:20.517Z,7.90
2023-01-15T15:57:51.354Z,7.90
2023-01-15T16:00:22.776Z,7.90
2023-01-15T16:02:49.834Z,7.80
2023-01-15T16:05:23.913Z,7.80
2023-01-15T16:07:51.308Z,7.80
2023-01-15T16:10:25.721Z,7.80
2023-01-15T16:12:54.880Z,7.80
2023-01-15T16:15:24.672Z,7.80
2023-01-15T16:17:51.996Z,7.70
2023-01-15T16:20:20.764Z,7.60
2023-01-15T16:22:54.988Z,7.60
2023-01-15T16:25:24.488Z,7.50
2023-01-15T16:27:52.009Z,7.40
2023-01-15T16:30:20.340Z,7.40
2023-01-15T16:32:49.170Z,7.40
2023-01-15T16:35:18.564Z,7.40
2023-01-15T16:37:50.127Z,7.30
2023-01-15T16:40:26.447Z,7.30
2023-01-15T16:43:04.125Z,7.30
2023-01-15T16:45:31.783Z,7.30
2023-01-15T16:48:11.849Z,7.30
2023-01-15T16:50:42.433Z,7.30
2023-01-15T16:53:36.999Z,7.20
2023-01-15T16:56:04.887Z,7.20
2023-01-15T16:58:34.630Z,7.20
2023-01-15T17:01:02.258Z,7.20
2023-01-15T17:03:31.963Z,7.20
2023-01-15T17:06:05.207Z,7.20
2023-01-15T17:08:41.684Z,7.20
2023-01-15T17:11:21.296Z,7.20
2023-01-15T17:13:48.426Z,7.20
2023-01-15T17:16:18.637Z,7.10
2023-01-15T17:18:46.046Z,7.10
2023-01-15T17:21:18.568Z,7.10
2023-01-15T17:23:47.386Z,7.10
2023-01-15T17:26:20.107Z,7.10
2023-01-15T17:28:47.511Z,7.10
2023-01-15T17:31:23.418Z,7.00
2023-01-15T17:33:53.077Z,6.90
2023-01-15T17:36:20.976Z,6.90
2023-01-15T17:38:49.377Z,6.90
2023-01-15T17:41:18.226Z,6.80
2023-01-15T17:43:45.631Z,6.80
2023-01-15T17:46:12.931Z,6.80
2023-01-15T17:48:40.404Z,6.70
2023-01-15T17:51:11.760Z,6.80
2023-01-15T17:53:38.845Z,6.70
2023-01-15T17:56:27.324Z,6.80
2023-01-15T17:59:12.637Z,6.70
2023-01-15T18:02:01.169Z,6.70
2023-01-15T18:04:50.619Z,6.70
2023-01-15T18:07:21.634Z,6.70
2023-01-15T18:09:50.378Z,6.60
2023-01-15T18:12:18.681Z,6.60
2023-01-15T18:14:45.684Z,6.60
2023-01-15T18:17:12.591Z,6.50
2023-01-15T18:19:39.603Z,6.60
2023-01-15T18:22:06.484Z,6.60
2023-01-15T18:24:33.442Z,6.50
2023-01-15T18:27:00.497Z,6.50
2023-01-15T18:29:29.015Z,6.50
2023-01-15T18:31:55.978Z,6.50
2023-01-15T18:34:22.838Z,6.50
2023-01-15T18:36:49.748Z,6.50
2023-01-15T18:39:16.603Z,6.50
2023-01-15T18:41:43.581Z,6.50
2023-01-15T18:44:31.574Z,6.50
2023-01-15T18:47:02.162Z,6.50
2023-01-15T18:49:29.645Z,6.50
2023-01-15T18:52:15.395Z,6.50
2023-01-15T18:54:42.324Z,6.50
2023-01-15T18:57:09.310Z,6.50
2023-01-15T18:59:36.370Z,6.50
2023-01-15T19:02:05.367Z,6.50
2023-01-15T19:04:32.344Z,6.50
2023-01-15T19:06:59.889Z,6.50
2023-01-15T19:09:26.893Z,6.40
2023-01-15T19:11:53.958Z,6.50
2023-01-15T19:14:39.984Z,6.50
2023-01-15T19:17:31.020Z,6.50
2023-01-15T19:19:57.953Z,6.50
2023-01-15T19:22:43.500Z,6.60
2023-01-15T19:25:10.703Z,6.60
2023-01-15T19:27:38.096Z,6.60
2023-01-15T19:30:07.002Z,6.60
2023-01-15T19:32:35.352Z,6.60
2023-01-15T19:35:02.308Z,6.60
2023-01-15T19:37:31.186Z,6.70
2023-01-15T19:39:58.324Z,6.70
2023-01-15T19:42:44.179Z,6.70
2023-01-15T19:45:30.008Z,6.70
2023-01-15T19:48:28.069Z,6.70
2023-01-15T19:50:55.335Z,6.70
2023-01-15T19:53:22.343Z,6.70
2023-01-15T19:55:49.437Z,6.70
2023-01-15T19:58:17.264Z,6.70
2023-01-15T20:00:48.540Z,6.70
2023-01-15T20:03:17.515Z,6.70
2023-01-15T20:05:45.581Z,6.70
2023-01-15T20:08:14.067Z,6.70
2023-01-15T20:10:42.184Z,6.70
2023-01-15T20:13:32.041Z,6.70
2023-01-15T20:16:05.177Z,6.70
2023-01-15T20:18:33.476Z,6.60
2023-01-15T20:21:00.499Z,6.60
2023-01-15T20:23:27.481Z,6.50
2023-01-15T20:25:54.541Z,6.50
2023-01-15T20:28:21.583Z,6.50
2023-01-15T20:30:48.667Z,6.40
2023-01-15T20:33:15.713Z,6.40
2023-01-15T20:35:44.042Z,6.30
2023-01-15T20:38:10.974Z,6.20
2023-01-15T20:40:37.906Z,6.20
2023-01-15T20:43:23.465Z,6.10
2023-01-15T20:45:52.075Z,6.00
2023-01-15T20:48:37.827Z,6.00
2023-01-15T20:51:12.843Z,5.90
2023-01-15T20:53:41.594Z,5.90
2023-01-15T20:56:13.584Z,5.80
2023-01-15T20:58:40.676Z,5.80
2023-01-15T21:01:10.733Z,5.80
2023-01-15T21:03:39.209Z,5.80
2023-01-15T21:06:07.527Z,5.80
2023-01-15T21:08:35.946Z,5.80
2023-01-15T21:11:03.254Z,5.80
2023-01-15T21:13:31.218Z,5.80
2023-01-15T21:16:00.212Z,5.80
2023-01-15T21:18:28.710Z,5.80
2023-01-15T21:20:55.992Z,5.90
2023-01-15T21:23:23.961Z,5.90
2023-01-15T21:25:58.977Z,6.00
2023-01-15T21:28:25.911Z,5.90
2023-01-15T21:30:52.821Z,5.90
2023-01-15T21:33:19.746Z,5.90
2023-01-15T21:35:46.688Z,5.80
2023-01-15T21:38:13.867Z,5.80
2023-01-15T21:40:40.958Z,5.80
2023-01-15T21:43:29.220Z,5.80
2023-01-15T21:46:02.309Z,5.90
2023-01-15T21:48:29.610Z,5.90
2023-01-15T21:50:56.689Z,5.90
2023-01-15T21:53:23.778Z,6.00
2023-01-15T21:55:51.299Z,6.00
2023-01-15T21:58:19.803Z,6.00
2023-01-15T22:00:46.840Z,6.00
2023-01-15T22:03:17.412Z,6.00
2023-01-15T22:05:44.519Z,6.00
2023-01-15T22:08:11.523Z,6.10
2023-01-15T22:10:38.493Z,6.10
2023-01-15T22:13:05.472Z,6.10
2023-01-15T22:15:33.802Z,6.00
2023-01-15T22:18:00.919Z,6.00
2023-01-15T22:20:27.844Z,6.10
2023-01-15T22:22:54.800Z,6.10
2023-01-15T22:25:21.817Z,6.10
2023-01-15T22:27:48.820Z,6.10
2023-01-15T22:30:16.669Z,6.10
2023-01-15T22:32:44.969Z,6.00
2023-01-15T22:35:11.903Z,6.00
2023-01-15T22:37:38.907Z,6.00
2023-01-15T22:40:07.341Z,6.00
2023-01-15T22:42:34.279Z,6.10
2023-01-15T22:45:03.272Z,6.00
2023-01-15T22:47:30.683Z,6.10
2023-01-15T22:49:59.028Z,6.10
2023-01-15T22:52:26.201Z,6.10
2023-01-15T22:54:53.305Z,6.10
2023-01-15T22:57:20.695Z,6.10
2023-01-15T22:59:47.748Z,6.10
2023-01-15T23:02:14.799Z,6.10
2023-01-15T23:04:41.845Z,6.10
2023-01-15T23:07:10.335Z,6.10
2023-01-15T23:09:37.501Z,6.10
2023-01-15T23:12:04.789Z,6.10
2023-01-15T23:14:31.864Z,6.10
2023-01-15T23:16:58.758Z,6.10
2023-01-15T23:19:27.953Z,6.10
2023-01-15T23:21:55.309Z,6.10
2023-01-15T23:24:23.666Z,6.20
2023-01-15T23:26:50.642Z,6.20
2023-01-15T23:29:17.551Z,6.20
2023-01-15T23:31:44.384Z,6.20
2023-01-15T23:34:12.426Z,6.20
2023-01-15T23:36:39.529Z,6.20
2023-01-15T23:39:06.600Z,6.20
2023-01-15T23:41:53.560Z,6.20
2023-01-15T23:44:39.865Z,6.20
2023-01-15T23:47:07.794Z,6.20
2023-01-15T23:49:34.902Z,6.20
2023-01-15T23:52:02.253Z,6.20
2023-01-15T23:54:31.221Z,6.20
2023-01-15T23:57:01.051Z,6.30
2023-01-15T23:59:28.517Z,6.20
